الصفحة الرئيسية
METAR-TAF:

METAR-TAF

مطار :

مطار نيكولا تسلا في بلغراد

بلغراد, صربيا

دائرة عرض: 44-49N, خط طول: 020-17E, ارتفاع: 96 متر

مراقبة الطقس الحالي

تاريخ ووقت الإصدار 22 دقيقة قبل الساعة 06:30UTC
ريح 3 عقدة من الشرق/الجنوب الشرقي, الاتجاه يتراوح بين الشرق و الجنوب
درجة الحرارة 18°درجة مئوية
الرطوبة 73%
ضغط 1017 hPa
الرؤية 10 كم أو أكثر
الغيوم لا تقل 1500 م ولا وجود لمزنة ركامية السحاب الأسود

METAR: LYBE 210630Z 11003KT 080V180 CAVOK 18/13 Q1017 NOSIG

زمن: 08:52 (06:52 UTC)

توقعات

تاريخ ووقت الإصدار 1ساعة و 52 دقيقة قبل الساعة 05:00UTC
التوقعات صالحة من21 الساعة 06 UTC إلى 22 الساعة 06 UTC
ريح 5 عقدة من الجنوب
الرؤية 10 كم أو أكثر
الغيوم لا تقل 1500 م ولا وجود لمزنة ركامية السحاب الأسود
أصبح
من 21 الساعة 08 UTC إلى 21 الساعة 10 UTC
ريح 11 عقدة من الجنوب الشرقي
نظرية الاحتمالات 40% :
مؤقت
من 21 الساعة 14 UTC إلى 21 الساعة 18 UTC
الرؤية: 3000 متر
غيوم متفرقة على ارتفاع 3300 قدم, مزنة ركامية.
غيوم مفككة على ارتفاع 4000 قدم
عاصفة رعدية, مطر

TAF: LYBE 210500Z 2106/2206 19005KT CAVOK TX25/2113Z TN15/2203Z BECMG 2108/2110 13011KT PROB40 TEMPO 2114/2118 3000 TSRA SCT033CB BKN040

أرصاد الطقس والتوقعات من أكثر من 4000 مطار (تقارير الطقس للمطار METAR والتنبؤ بالطقس بالمطارTAF).

المحطات المتاحة هي النقط الصفراء والحمراء على الخريطة.

حرك المؤشر فوق النقطة لمعرفة اسم المحطة.

ثم انقر لمعرفة أرصاد وتوقعات الطقس.

لتغيير الخارطة: اضغط على الأزرار الخضراء مع رمز الصليب الأسود للتكبير. على الزر الأخضر مع شرطة للتصغير، أو على الأسهم الخضراء للخرائط المجاورة.


METAR-TAF: